Time;durP1;ratioP1;P1;durP2;ratioP2;P2;SDS_P1;SDS_P2;PMS_P1;PMS_P2;Temp;Humidity;BMP_temperature;BMP_pressure;BME280_temperature;BME280_humidity;BME280_pressure;Samples;Min_cycle;Max_cycle;Signal;HPM_P1;HPM_P2
2023/04/28 00:01:52;;;;;;;6.50;3.08;;;;;;;4.70;56.69;101368.91;7400584;19;20018;-67
2023/04/28 00:04:21;;;;;;;6.72;2.97;;;;;;;4.69;56.63;101367.16;7398130;19;20036;-67
2023/04/28 00:06:49;;;;;;;6.03;2.80;;;;;;;4.68;56.73;101365.41;7400501;19;20419;-67
2023/04/28 00:09:17;;;;;;;4.57;2.97;;;;;;;4.68;56.83;101368.03;7399522;19;20082;-70
2023/04/28 00:11:49;;;;;;;3.17;2.60;;;;;;;4.67;56.95;101363.66;7397721;19;20090;-69
2023/04/28 00:14:17;;;;;;;7.05;3.15;;;;;;;4.67;56.87;101362.81;7398486;19;20049;-66
2023/04/28 00:16:46;;;;;;;5.57;2.97;;;;;;;4.66;56.75;101364.53;7400577;19;20018;-69
2023/04/28 00:19:14;;;;;;;4.72;2.40;;;;;;;4.65;56.91;101352.41;7399682;19;20482;-67
2023/04/28 00:21:42;;;;;;;4.80;3.15;;;;;;;4.65;56.66;101355.00;7400363;19;20083;-67
2023/04/28 00:24:11;;;;;;;3.92;2.63;;;;;;;4.66;56.74;101358.47;7398253;19;20035;-67
2023/04/28 00:26:39;;;;;;;4.95;3.50;;;;;;;4.65;56.53;101352.41;7399847;19;20031;-67
2023/04/28 00:29:10;;;;;;;5.93;2.97;;;;;;;4.67;56.69;101348.06;7399270;19;20085;-67
2023/04/28 00:31:39;;;;;;;4.07;2.85;;;;;;;4.67;56.75;101347.22;7400183;19;20022;-67
2023/04/28 00:34:07;;;;;;;4.03;3.03;;;;;;;4.67;56.80;101345.47;7397943;19;20158;-67
2023/04/28 00:36:36;;;;;;;6.60;3.45;;;;;;;4.68;56.88;101343.75;7397485;19;20082;-67
2023/04/28 00:39:04;;;;;;;3.63;2.90;;;;;;;4.68;57.21;101338.56;7399807;19;20014;-67
2023/04/28 00:41:33;;;;;;;5.07;3.22;;;;;;;4.67;57.10;101332.47;7397281;19;20022;-67
2023/04/28 00:44:01;;;;;;;6.93;3.38;;;;;;;4.66;57.63;101329.88;7397430;19;20086;-67
2023/04/28 00:46:33;;;;;;;4.90;2.80;;;;;;;4.64;57.61;101322.06;7397216;19;20094;-67
2023/04/28 00:49:02;;;;;;;4.78;2.95;;;;;;;4.64;57.80;101328.97;7399175;19;20019;-67
2023/04/28 00:51:32;;;;;;;3.47;2.70;;;;;;;4.62;57.69;101331.56;7399375;19;20437;-68
2023/04/28 00:54:01;;;;;;;3.38;2.58;;;;;;;4.64;57.92;101315.97;7397741;19;20018;-68
2023/04/28 00:56:31;;;;;;;4.25;3.08;;;;;;;4.63;58.06;101317.72;7399213;19;20018;-68
2023/04/28 00:58:59;;;;;;;5.93;3.55;;;;;;;4.63;57.83;101314.25;7398793;19;20462;-67
2023/04/28 01:01:28;;;;;;;4.30;3.05;;;;;;;4.63;57.86;101306.44;7399133;19;20439;-67
2023/04/28 01:03:59;;;;;;;5.15;2.47;;;;;;;4.63;57.84;101312.50;7396299;19;20427;-68
2023/04/28 01:06:29;;;;;;;6.63;2.83;;;;;;;4.63;57.78;101306.44;7396841;19;20489;-68
2023/04/28 01:08:58;;;;;;;5.70;2.67;;;;;;;4.63;57.99;101312.50;7396112;19;20035;-67
2023/04/28 01:11:26;;;;;;;6.10;3.38;;;;;;;4.64;57.94;101305.56;7398713;19;20039;-67
2023/04/28 01:13:56;;;;;;;5.40;3.13;;;;;;;4.64;57.75;101309.06;7397097;19;20082;-67
2023/04/28 01:16:25;;;;;;;6.18;3.85;;;;;;;4.64;57.90;101298.66;7398183;19;20369;-66
2023/04/28 01:18:54;;;;;;;4.15;3.50;;;;;;;4.63;57.96;101298.66;7396319;19;20050;-69
2023/04/28 01:21:31;;;;;;;8.68;3.80;;;;;;;4.61;57.94;101303.81;7395973;19;20462;-68
2023/04/28 01:24:03;;;;;;;5.03;3.78;;;;;;;4.64;57.88;101298.66;7396892;19;20014;-68
2023/04/28 01:26:31;;;;;;;6.20;3.25;;;;;;;4.63;58.11;101294.31;7398121;19;20424;-67
2023/04/28 01:29:00;;;;;;;4.93;2.67;;;;;;;4.62;58.29;101294.31;7397710;19;20018;-67
2023/04/28 01:31:29;;;;;;;7.20;3.45;;;;;;;4.59;58.19;101295.13;7394409;19;20026;-67
2023/04/28 01:33:58;;;;;;;6.18;3.90;;;;;;;4.59;58.43;101294.25;7396494;19;20018;-67
2023/04/28 01:36:28;;;;;;;7.68;3.33;;;;;;;4.59;58.60;101289.94;7397506;19;20554;-67
2023/04/28 01:38:57;;;;;;;4.20;3.33;;;;;;;4.59;58.41;101287.34;7396163;19;20010;-67
2023/04/28 01:41:28;;;;;;;4.75;3.60;;;;;;;4.59;58.65;101287.34;7397335;19;20503;-67
2023/04/28 01:43:56;;;;;;;4.78;2.97;;;;;;;4.58;58.59;101285.59;7395172;19;20541;-67
2023/04/28 01:46:25;;;;;;;6.03;2.88;;;;;;;4.57;58.62;101284.72;7397361;19;20086;-67
2023/04/28 01:48:53;;;;;;;5.25;3.70;;;;;;;4.54;58.73;101287.28;7396945;19;20415;-71
2023/04/28 01:51:22;;;;;;;9.35;3.55;;;;;;;4.52;58.97;101283.78;7397265;19;20018;-70
2023/04/28 01:53:50;;;;;;;7.22;3.55;;;;;;;4.49;58.81;101283.75;7395291;19;20022;-69
2023/04/28 01:56:19;;;;;;;5.82;3.38;;;;;;;4.45;58.99;101275.91;7395426;19;20091;-70
2023/04/28 01:58:50;;;;;;;5.72;3.63;;;;;;;4.47;59.13;101279.41;7396719;19;20425;-70
2023/04/28 02:01:18;;;;;;;8.95;3.45;;;;;;;4.46;59.11;101267.25;7395728;19;20029;-70
2023/04/28 02:03:47;;;;;;;4.55;3.13;;;;;;;4.44;59.51;101271.59;7395652;19;20411;-69
2023/04/28 02:06:16;;;;;;;4.82;3.38;;;;;;;4.41;59.64;101269.81;7395120;19;20028;-69
2023/04/28 02:08:44;;;;;;;5.78;3.72;;;;;;;4.40;59.47;101268.06;7396284;19;20567;-70
2023/04/28 02:11:13;;;;;;;6.85;3.15;;;;;;;4.37;59.66;101268.91;7394486;19;20078;-70
2023/04/28 02:13:41;;;;;;;8.25;3.70;;;;;;;4.37;59.94;101271.50;7395503;19;20018;-70
2023/04/28 02:16:12;;;;;;;4.53;3.10;;;;;;;4.36;59.91;101263.66;7396049;19;20545;-68
2023/04/28 02:18:41;;;;;;;5.75;3.88;;;;;;;4.35;59.83;101260.22;7395912;19;20482;-69
2023/04/28 02:21:13;;;;;;;5.03;3.75;;;;;;;4.35;60.08;101259.34;7394646;19;20039;-69
2023/04/28 02:23:42;;;;;;;6.85;3.80;;;;;;;4.34;60.20;101263.66;7394947;19;20031;-70
2023/04/28 02:26:10;;;;;;;6.90;3.45;;;;;;;4.34;60.21;101262.78;7396702;19;20026;-70
2023/04/28 02:28:39;;;;;;;8.85;3.75;;;;;;;4.31;60.27;101255.84;7398242;19;20022;-70
2023/04/28 02:31:09;;;;;;;6.28;3.53;;;;;;;4.31;60.44;101249.75;7399421;19;20034;-71
2023/04/28 02:33:41;;;;;;;6.78;3.85;;;;;;;4.30;60.41;101256.69;7398417;19;20015;-71
2023/04/28 02:36:10;;;;;;;4.53;3.55;;;;;;;4.30;60.49;101259.28;7396848;19;20018;-70
2023/04/28 02:38:40;;;;;;;9.85;4.22;;;;;;;4.28;60.81;101249.72;7395733;19;20035;-69
2023/04/28 02:41:09;;;;;;;5.07;3.63;;;;;;;4.27;60.74;101254.03;7395634;19;20007;-69
2023/04/28 02:43:38;;;;;;;7.20;4.38;;;;;;;4.26;60.90;101251.41;7391708;19;20042;-69
2023/04/28 02:46:07;;;;;;;6.70;3.92;;;;;;;4.25;61.05;101253.16;7395662;19;20026;-69
2023/04/28 02:48:36;;;;;;;5.50;4.03;;;;;;;4.22;61.10;101240.13;7395518;19;20394;-69
2023/04/28 02:51:07;;;;;;;6.47;4.00;;;;;;;4.20;61.03;101237.50;7393767;19;20014;-69
2023/04/28 02:53:35;;;;;;;4.93;3.80;;;;;;;4.18;61.33;101238.34;7394705;19;20078;-69
2023/04/28 02:56:04;;;;;;;7.70;3.95;;;;;;;4.15;61.24;101231.38;7394819;19;20553;-69
2023/04/28 02:58:32;;;;;;;5.38;4.10;;;;;;;4.15;61.38;101238.31;7394928;19;20081;-69
2023/04/28 03:01:01;;;;;;;4.85;3.75;;;;;;;4.12;61.78;101233.97;7395183;19;20018;-69
2023/04/28 03:03:29;;;;;;;5.18;3.70;;;;;;;4.10;61.72;101230.47;7393959;19;20014;-70
2023/04/28 03:05:58;;;;;;;4.72;4.00;;;;;;;4.08;61.99;101225.25;7393139;19;20031;-69
2023/04/28 03:08:29;;;;;;;4.88;3.60;;;;;;;4.05;62.23;101232.13;7392710;19;20019;-70
2023/04/28 03:10:57;;;;;;;6.35;3.95;;;;;;;4.00;62.43;101229.47;7393441;19;20086;-70
2023/04/28 03:13:26;;;;;;;5.05;3.15;;;;;;;3.97;62.66;101225.94;7393244;19;20431;-69
2023/04/28 03:15:54;;;;;;;3.80;3.28;;;;;;;3.93;62.76;101225.06;7394413;19;20031;-69
2023/04/28 03:18:23;;;;;;;5.20;3.60;;;;;;;3.89;63.10;101215.47;7394790;19;20022;-69
2023/04/28 03:20:52;;;;;;;5.50;3.45;;;;;;;3.86;63.27;101212.84;7394339;19;20011;-69
2023/04/28 03:23:20;;;;;;;5.00;3.70;;;;;;;3.82;63.38;101206.72;7393808;19;20025;-69
2023/04/28 03:25:51;;;;;;;6.72;3.88;;;;;;;3.79;63.40;101214.50;7394174;19;20486;-69
2023/04/28 03:28:20;;;;;;;9.30;4.80;;;;;;;3.77;63.66;101210.09;7394095;19;20424;-69
2023/04/28 03:30:48;;;;;;;8.13;4.30;;;;;;;3.75;63.62;101208.38;7393202;19;20074;-69
2023/04/28 03:33:17;;;;;;;6.15;4.07;;;;;;;3.74;63.61;101200.53;7393007;19;20436;-69
2023/04/28 03:35:45;;;;;;;6.43;3.70;;;;;;;3.70;63.76;101197.06;7393958;19;20102;-71
2023/04/28 03:38:14;;;;;;;6.63;4.07;;;;;;;3.68;63.94;101209.13;7392245;19;20015;-71
2023/04/28 03:40:42;;;;;;;6.68;3.75;;;;;;;3.65;64.06;101198.72;7393514;19;20025;-69
2023/04/28 03:43:14;;;;;;;7.90;3.95;;;;;;;3.60;64.22;101195.16;7392912;19;20019;-68
2023/04/28 03:45:42;;;;;;;7.93;4.40;;;;;;;3.59;64.23;101196.91;7394042;19;20026;-69
2023/04/28 03:48:11;;;;;;;8.48;3.70;;;;;;;3.58;64.45;101196.88;7391574;19;20078;-68
2023/04/28 03:50:39;;;;;;;6.70;3.75;;;;;;;3.54;64.43;101195.97;7392675;19;20035;-69
2023/04/28 03:53:08;;;;;;;8.32;4.45;;;;;;;3.51;64.67;101193.31;7393099;19;20028;-69
2023/04/28 03:55:37;;;;;;;10.43;4.63;;;;;;;3.49;64.81;101199.31;7396579;19;20015;-69
2023/04/28 03:58:05;;;;;;;7.57;4.22;;;;;;;3.49;64.91;101194.13;7401348;19;20082;-70
2023/04/28 04:00:36;;;;;;;8.13;4.45;;;;;;;3.49;65.02;101194.13;7400968;19;20035;-69
2023/04/28 04:03:05;;;;;;;7.82;4.88;;;;;;;3.46;65.11;101194.97;7399709;19;20019;-68
2023/04/28 04:05:33;;;;;;;7.50;4.43;;;;;;;3.46;65.23;101188.91;7397618;19;20030;-69
2023/04/28 04:08:02;;;;;;;8.18;4.70;;;;;;;3.45;65.27;101187.16;7397896;19;20035;-71
2023/04/28 04:10:30;;;;;;;7.25;5.35;;;;;;;3.42;65.34;101177.63;7399272;19;20104;-69
2023/04/28 04:12:59;;;;;;;8.52;4.53;;;;;;;3.43;65.43;101172.44;7399761;19;20027;-69
2023/04/28 04:15:27;;;;;;;8.32;4.68;;;;;;;3.40;65.60;101169.81;7401524;19;20035;-69
2023/04/28 04:17:58;;;;;;;8.18;5.05;;;;;;;3.42;65.50;101173.31;7400204;19;20015;-69
2023/04/28 04:20:27;;;;;;;9.38;4.93;;;;;;;3.42;65.51;101164.66;7400276;19;20019;-70
2023/04/28 04:22:55;;;;;;;9.77;5.45;;;;;;;3.42;65.58;101168.13;7399229;19;20040;-70
2023/04/28 04:25:24;;;;;;;13.48;6.43;;;;;;;3.42;65.88;101172.44;7399848;19;20498;-70
2023/04/28 04:27:52;;;;;;;10.40;5.75;;;;;;;3.41;65.84;101171.56;7399614;19;20021;-70
2023/04/28 04:30:21;;;;;;;9.43;5.60;;;;;;;3.43;65.74;101179.38;7397554;19;20047;-70
2023/04/28 04:32:49;;;;;;;9.32;5.32;;;;;;;3.45;65.87;101169.91;7397601;19;20078;-69
2023/04/28 04:35:21;;;;;;;8.02;5.28;;;;;;;3.47;65.92;101164.72;7396414;19;20486;-69
2023/04/28 04:37:49;;;;;;;9.45;5.90;;;;;;;3.49;65.86;101166.50;7397361;19;20018;-69
2023/04/28 04:40:18;;;;;;;11.02;5.65;;;;;;;3.51;65.97;101164.78;7399091;19;20018;-69
2023/04/28 04:42:47;;;;;;;10.00;5.88;;;;;;;3.54;65.72;101163.97;7398771;19;20023;-71
2023/04/28 04:45:16;;;;;;;7.30;5.80;;;;;;;3.56;66.03;101159.66;7399008;19;20094;-70
2023/04/28 04:47:51;;;;;;;8.05;6.10;;;;;;;3.59;66.06;101155.38;7396376;19;20011;-69
2023/04/28 04:50:23;;;;;;;10.70;6.40;;;;;;;3.62;66.08;101156.28;7399213;19;20026;-69
2023/04/28 04:52:58;;;;;;;17.58;7.45;;;;;;;3.64;66.16;101158.06;7399069;19;20357;-70
2023/04/28 04:55:26;;;;;;;11.65;6.05;;;;;;;3.68;66.05;101149.44;7398787;19;20018;-70
2023/04/28 04:57:55;;;;;;;11.38;7.00;;;;;;;3.71;65.98;101141.69;7398003;19;20018;-70
2023/04/28 05:00:23;;;;;;;12.40;7.38;;;;;;;3.77;66.21;101150.41;7396146;19;20014;-68
2023/04/28 05:02:52;;;;;;;24.27;13.70;;;;;;;3.81;66.11;101136.63;7396790;19;20384;-69
2023/04/28 05:05:23;;;;;;;16.35;10.07;;;;;;;3.86;66.18;101140.16;7394592;19;20028;-69
2023/04/28 05:07:52;;;;;;;15.65;11.43;;;;;;;3.91;66.29;101131.56;7396672;19;20047;-70
2023/04/28 05:10:20;;;;;;;14.40;8.55;;;;;;;3.97;66.35;101130.78;7397001;19;20073;-70
2023/04/28 05:12:49;;;;;;;13.77;8.52;;;;;;;4.03;66.38;101125.66;7395914;19;20026;-70
2023/04/28 05:15:17;;;;;;;11.23;7.72;;;;;;;4.09;66.22;101122.25;7397478;19;20015;-70
2023/04/28 05:17:46;;;;;;;10.88;7.57;;;;;;;4.14;66.24;101123.16;7395036;19;20023;-69
2023/04/28 05:20:15;;;;;;;17.63;8.32;;;;;;;4.17;66.20;101118.00;7397213;19;20014;-69
2023/04/28 05:22:46;;;;;;;11.20;7.43;;;;;;;4.25;65.93;101123.28;7398006;19;20042;-71
2023/04/28 05:25:15;;;;;;;15.05;7.82;;;;;;;4.31;66.12;101123.34;7397282;19;20023;-70
2023/04/28 05:27:43;;;;;;;13.95;11.18;;;;;;;4.37;66.11;101117.34;7397170;19;20014;-70
2023/04/28 05:30:12;;;;;;;14.35;8.30;;;;;;;4.42;66.03;101114.78;7397149;19;20035;-69
2023/04/28 05:32:41;;;;;;;12.57;7.43;;;;;;;4.46;66.02;101114.84;7396949;19;20046;-69
2023/04/28 05:35:10;;;;;;;12.63;8.35;;;;;;;4.51;66.03;101115.75;7396650;19;20506;-70
2023/04/28 05:37:41;;;;;;;15.15;7.72;;;;;;;4.56;66.10;101106.28;7397254;19;20015;-69
2023/04/28 05:40:13;;;;;;;12.45;7.97;;;;;;;4.62;66.01;101115.84;7397265;19;20350;-69
2023/04/28 05:42:42;;;;;;;10.20;8.27;;;;;;;4.66;66.17;101106.34;7396981;19;20140;-69
2023/04/28 05:45:12;;;;;;;11.15;7.80;;;;;;;4.67;66.04;101095.94;7397034;19;20035;-69
2023/04/28 05:47:40;;;;;;;13.18;8.57;;;;;;;4.79;65.92;101102.09;7397317;19;20018;-69
2023/04/28 05:50:10;;;;;;;15.57;8.02;;;;;;;4.83;66.12;101106.50;7394965;19;20023;-69
2023/04/28 05:52:39;;;;;;;12.32;8.00;;;;;;;4.95;65.88;101106.56;7396337;19;20082;-69
2023/04/28 05:55:08;;;;;;;12.00;7.80;;;;;;;5.03;65.88;101099.69;7396845;19;20035;-69
2023/04/28 05:57:40;;;;;;;12.38;7.55;;;;;;;5.12;65.78;101095.41;7396559;19;20031;-70
2023/04/28 06:00:09;;;;;;;11.90;7.50;;;;;;;5.21;65.84;101095.47;7396711;19;20019;-69
2023/04/28 06:02:38;;;;;;;11.80;7.40;;;;;;;5.32;65.87;101093.81;7396256;19;20018;-70
2023/04/28 06:05:07;;;;;;;10.55;7.47;;;;;;;5.44;65.77;101097.34;7395826;19;20015;-70
2023/04/28 06:07:36;;;;;;;12.60;6.50;;;;;;;5.55;65.31;101095.66;7396688;19;20018;-69
2023/04/28 06:10:05;;;;;;;9.93;6.63;;;;;;;5.68;65.25;101091.38;7394541;19;20050;-70
2023/04/28 06:12:33;;;;;;;8.85;5.90;;;;;;;5.80;65.45;101093.13;7394807;19;20022;-70
2023/04/28 06:15:05;;;;;;;9.98;6.00;;;;;;;5.94;65.39;101085.38;7394632;19;20031;-69
2023/04/28 06:17:33;;;;;;;9.55;5.70;;;;;;;6.09;64.86;101097.59;7395795;19;20019;-70
2023/04/28 06:20:02;;;;;;;10.20;6.35;;;;;;;6.21;64.49;101084.59;7394460;19;20038;-70
2023/04/28 06:22:31;;;;;;;9.43;5.70;;;;;;;6.32;63.88;101093.31;7395890;19;20047;-70
2023/04/28 06:24:59;;;;;;;7.32;5.30;;;;;;;6.46;63.60;101082.03;7393620;19;20506;-70
2023/04/28 06:27:31;;;;;;;9.00;5.65;;;;;;;6.58;63.30;101075.97;7393871;19;20018;-70
2023/04/28 06:30:00;;;;;;;9.93;6.55;;;;;;;6.72;62.73;101070.72;7396336;19;20019;-70
2023/04/28 06:32:31;;;;;;;8.50;5.63;;;;;;;6.83;62.63;101080.28;7393667;19;20035;-70
2023/04/28 06:34:59;;;;;;;12.43;6.40;;;;;;;6.98;61.97;101071.56;7396248;19;20014;-68
2023/04/28 06:37:28;;;;;;;10.70;6.20;;;;;;;7.14;61.38;101072.41;7393816;19;20035;-70
2023/04/28 06:39:56;;;;;;;7.68;5.53;;;;;;;7.29;61.15;101071.50;7393670;19;20014;-70
2023/04/28 06:42:25;;;;;;;9.23;6.07;;;;;;;7.46;61.05;101065.38;7393986;19;20074;-69
2023/04/28 06:44:53;;;;;;;8.80;5.65;;;;;;;7.61;60.65;101062.69;7394869;19;20018;-69
2023/04/28 06:47:22;;;;;;;9.10;5.60;;;;;;;7.77;60.17;101060.00;7395231;19;20015;-69
2023/04/28 06:49:53;;;;;;;10.27;6.07;;;;;;;7.88;59.74;101055.59;7395386;19;20015;-68
2023/04/28 06:52:22;;;;;;;11.25;5.57;;;;;;;8.06;59.20;101052.00;7394227;19;20035;-69
2023/04/28 06:54:51;;;;;;;9.23;5.60;;;;;;;8.16;58.88;101044.97;7394971;19;20025;-68
2023/04/28 06:57:20;;;;;;;9.73;5.45;;;;;;;8.35;58.66;101050.91;7394580;19;20022;-69
2023/04/28 06:59:48;;;;;;;7.28;5.18;;;;;;;8.49;58.48;101043.00;7394807;19;20019;-69
2023/04/28 07:02:17;;;;;;;11.70;6.05;;;;;;;8.64;57.84;101045.50;7394613;19;20010;-69
2023/04/28 07:04:45;;;;;;;10.82;5.78;;;;;;;8.78;57.30;101039.25;7393999;19;20482;-69
2023/04/28 07:07:16;;;;;;;10.02;5.80;;;;;;;8.91;57.23;101040.88;7392839;19;20481;-70
2023/04/28 07:09:45;;;;;;;8.00;5.38;;;;;;;9.04;56.86;101028.53;7394974;19;20027;-71
2023/04/28 07:12:13;;;;;;;10.95;5.85;;;;;;;9.17;56.57;101023.16;7393290;19;20039;-70
2023/04/28 07:14:42;;;;;;;9.30;5.75;;;;;;;9.30;56.11;101014.25;7391747;19;20021;-69
2023/04/28 07:17:10;;;;;;;8.93;5.93;;;;;;;9.42;55.67;101015.88;7391696;19;20019;-68
2023/04/28 07:19:39;;;;;;;10.65;5.30;;;;;;;9.53;55.38;101011.38;7393656;19;20031;-68
2023/04/28 07:22:08;;;;;;;11.45;5.90;;;;;;;9.65;55.00;101009.47;7394600;19;20041;-69
2023/04/28 07:24:39;;;;;;;6.53;5.28;;;;;;;9.75;54.88;101008.47;7391999;19;20484;-69
2023/04/28 07:27:07;;;;;;;9.10;5.63;;;;;;;9.88;54.47;101011.75;7391608;19;20541;-68
2023/04/28 07:29:36;;;;;;;22.17;15.45;;;;;;;9.98;54.26;101013.34;7396050;19;20036;-69
2023/04/28 07:32:07;;;;;;;11.00;5.90;;;;;;;10.10;53.92;101007.06;7399408;19;20022;-69
2023/04/28 07:34:36;;;;;;;8.15;6.07;;;;;;;10.21;53.69;101007.78;7397561;19;20380;-68
2023/04/28 07:37:05;;;;;;;7.43;5.40;;;;;;;10.31;53.30;101002.38;7398101;19;20398;-69
2023/04/28 07:39:34;;;;;;;8.30;5.05;;;;;;;10.42;52.38;101003.09;7401277;19;20019;-69
2023/04/28 07:42:05;;;;;;;8.75;5.18;;;;;;;10.52;52.16;100996.78;7400611;19;20015;-68
2023/04/28 07:44:34;;;;;;;8.75;4.85;;;;;;;10.61;52.10;100994.91;7398401;19;20019;-69
2023/04/28 07:47:10;;;;;;;10.48;6.00;;;;;;;10.70;51.89;100998.25;7398617;19;20070;-70
2023/04/28 07:49:38;;;;;;;7.68;5.32;;;;;;;10.81;51.24;100989.28;7401750;19;20011;-69
2023/04/28 07:52:07;;;;;;;10.13;6.00;;;;;;;10.90;51.12;100986.50;7399413;19;20087;-70
2023/04/28 07:54:35;;;;;;;10.40;5.30;;;;;;;10.98;51.13;100991.59;7398138;19;20019;-70
2023/04/28 07:57:06;;;;;;;8.23;5.95;;;;;;;11.06;50.64;100987.06;7398458;19;20454;-70
2023/04/28 07:59:35;;;;;;;8.85;5.28;;;;;;;11.15;50.38;100986.88;7401267;19;20015;-70
2023/04/28 08:02:04;;;;;;;10.85;5.53;;;;;;;11.22;50.07;100983.22;7400669;19;20025;-70
2023/04/28 08:04:33;;;;;;;7.90;5.28;;;;;;;11.31;49.84;100979.56;7397667;19;20481;-70
2023/04/28 08:07:02;;;;;;;11.65;6.78;;;;;;;11.40;49.81;100981.13;7397802;19;20016;-70
2023/04/28 08:09:31;;;;;;;11.90;6.68;;;;;;;11.48;49.33;100967.81;7400167;19;20014;-69
2023/04/28 08:12:00;;;;;;;11.55;7.32;;;;;;;11.57;49.07;100967.59;7399034;19;20366;-70
2023/04/28 08:14:31;;;;;;;9.20;5.97;;;;;;;11.66;48.52;100972.63;7397838;19;20377;-70
2023/04/28 08:17:00;;;;;;;9.60;6.20;;;;;;;11.74;48.46;100956.72;7400835;19;20019;-70
2023/04/28 08:19:28;;;;;;;11.93;6.07;;;;;;;11.82;48.33;100962.66;7400159;19;20015;-70
2023/04/28 08:21:58;;;;;;;13.93;6.05;;;;;;;11.90;48.21;100957.19;7399370;19;20010;-69
2023/04/28 08:24:29;;;;;;;12.23;6.03;;;;;;;12.00;47.93;100950.84;7397554;19;20015;-69
2023/04/28 08:26:57;;;;;;;9.57;6.28;;;;;;;12.10;47.69;100948.88;7398214;19;20028;-69
2023/04/28 08:29:26;;;;;;;10.95;6.35;;;;;;;12.22;47.66;100956.44;7400081;19;20078;-69
2023/04/28 08:31:57;;;;;;;10.18;5.93;;;;;;;12.32;46.60;100956.22;7398100;19;20431;-69
2023/04/28 08:34:25;;;;;;;10.73;6.50;;;;;;;12.43;46.42;100948.91;7396668;19;20027;-68
2023/04/28 08:36:54;;;;;;;10.45;6.70;;;;;;;12.52;46.05;100951.31;7398852;19;20517;-70
2023/04/28 08:39:25;;;;;;;12.15;5.97;;;;;;;12.59;45.71;100953.78;7399325;19;20018;-69
2023/04/28 08:41:53;;;;;;;12.02;6.47;;;;;;;12.66;45.42;100944.78;7399035;19;20580;-70
2023/04/28 08:44:22;;;;;;;10.88;5.75;;;;;;;12.74;45.38;100947.22;7397022;19;20419;-69
2023/04/28 08:46:54;;;;;;;7.72;5.50;;;;;;;12.82;45.24;100942.63;7398647;19;20521;-69
2023/04/28 08:49:36;;;;;;;9.25;5.75;;;;;;;12.94;44.17;100934.38;7398991;19;20348;-67
2023/04/28 08:52:10;;;;;;;10.25;5.75;;;;;;;13.03;45.07;100935.88;7398610;19;20019;-67
2023/04/28 08:54:41;;;;;;;9.30;5.75;;;;;;;13.12;44.63;100932.97;7396408;19;20400;-67
2023/04/28 08:57:11;;;;;;;14.02;5.63;;;;;;;13.20;44.27;100938.88;7397603;19;20086;-66
2023/04/28 08:59:43;;;;;;;10.52;6.10;;;;;;;13.27;43.84;100926.38;7397691;19;20018;-66
2023/04/28 09:02:11;;;;;;;12.27;5.80;;;;;;;13.36;44.39;100925.25;7398800;19;20179;-66
2023/04/28 09:04:42;;;;;;;8.23;5.53;;;;;;;13.44;44.29;100925.88;7396966;19;20022;-66
2023/04/28 09:07:13;;;;;;;11.57;6.07;;;;;;;13.51;44.26;100929.22;7396096;19;20010;-66
2023/04/28 09:09:44;;;;;;;8.25;5.45;;;;;;;13.60;43.84;100926.28;7395921;19;20011;-66
2023/04/28 09:12:12;;;;;;;8.20;5.53;;;;;;;13.66;43.55;100923.47;7397699;19;20015;-66
2023/04/28 09:14:41;;;;;;;9.75;5.00;;;;;;;13.72;43.61;100922.38;7394973;19;20498;-70
2023/04/28 09:17:15;;;;;;;10.73;6.15;;;;;;;13.80;42.80;100919.50;7396879;19;20019;-67
2023/04/28 09:19:46;;;;;;;11.73;5.75;;;;;;;13.85;43.01;100923.72;7398277;19;20090;-66
2023/04/28 09:22:14;;;;;;;10.18;5.60;;;;;;;13.91;43.47;100921.81;7396963;19;20029;-66
2023/04/28 09:24:43;;;;;;;10.95;6.13;;;;;;;13.97;43.08;100913.69;7397136;19;20089;-66
2023/04/28 09:27:14;;;;;;;13.02;5.72;;;;;;;14.02;42.82;100911.75;7398825;19;20019;-66
2023/04/28 09:29:54;;;;;;;8.02;5.95;;;;;;;14.06;42.43;100910.72;7398984;19;20015;-66
2023/04/28 09:32:26;;;;;;;8.00;5.47;;;;;;;14.10;42.95;100917.66;7394728;19;20014;-66
2023/04/28 09:34:58;;;;;;;10.25;7.30;;;;;;;14.16;42.65;100919.22;7395684;19;20022;-66
2023/04/28 09:37:29;;;;;;;10.20;6.60;;;;;;;14.21;43.05;100906.72;7397862;19;20010;-66
2023/04/28 09:39:59;;;;;;;12.27;5.72;;;;;;;14.26;42.73;100899.50;7397546;19;20039;-66
2023/04/28 09:42:35;;;;;;;9.95;6.45;;;;;;;14.31;42.59;100896.72;7397242;19;20427;-67
2023/04/28 09:45:04;;;;;;;15.25;6.28;;;;;;;14.37;42.60;100900.91;7397426;19;20023;-70
2023/04/28 09:47:34;;;;;;;9.10;6.00;;;;;;;14.39;42.55;100889.38;7394553;19;20022;-68
2023/04/28 09:50:08;;;;;;;12.02;6.35;;;;;;;14.42;42.47;100897.19;7396956;19;20019;-68
2023/04/28 09:52:36;;;;;;;;;;;;;;;14.43;42.00;100883.09;7394840;19;20014;-68
2023/04/28 09:55:07;;;;;;;10.77;5.95;;;;;;;14.45;42.66;100881.25;7396925;19;20248;-68
2023/04/28 09:57:37;;;;;;;12.20;6.65;;;;;;;14.50;42.54;100879.28;7395230;19;20549;-68
2023/04/28 10:00:08;;;;;;;11.30;6.00;;;;;;;14.57;41.62;100879.06;7396695;19;20055;-69
2023/04/28 10:02:37;;;;;;;9.38;5.57;;;;;;;14.61;41.36;100875.44;7397017;19;20101;-69
2023/04/28 10:05:11;;;;;;;10.60;6.40;;;;;;;14.68;41.09;100881.38;7396350;19;20018;-70
2023/04/28 10:07:40;;;;;;;10.52;5.53;;;;;;;14.73;41.32;100880.25;7394801;19;20017;-69
2023/04/28 10:10:10;;;;;;;8.18;5.50;;;;;;;14.77;40.69;100873.09;7393897;19;20023;-69
2023/04/28 10:12:39;;;;;;;9.88;5.85;;;;;;;14.79;41.01;100869.47;7393981;19;20022;-69
2023/04/28 10:15:11;;;;;;;8.80;5.30;;;;;;;14.81;41.19;100867.66;7395860;19;20015;-69
2023/04/28 10:17:40;;;;;;;10.70;6.00;;;;;;;14.85;41.42;100868.41;7395929;19;20015;-68
2023/04/28 10:20:13;;;;;;;7.97;5.45;;;;;;;14.89;41.27;100871.78;7394333;19;20363;-68
2023/04/28 10:22:59;;;;;;;8.02;6.20;;;;;;;14.93;41.22;100863.66;7393840;19;20022;-69
2023/04/28 10:25:38;;;;;;;9.85;5.90;;;;;;;14.99;41.20;100863.44;7393237;19;20011;-69
2023/04/28 10:28:08;;;;;;;9.48;5.20;;;;;;;15.05;40.95;100853.56;7395237;19;20509;-69
2023/04/28 10:30:37;;;;;;;9.43;5.68;;;;;;;15.09;40.71;100853.38;7396147;19;20018;-69
2023/04/28 10:33:27;;;;;;;7.68;5.80;;;;;;;15.18;40.36;100849.53;7394494;19;20022;-68
2023/04/28 10:35:58;;;;;;;11.27;5.88;;;;;;;15.28;40.51;100850.03;7393404;19;20010;-69
2023/04/28 10:38:26;;;;;;;11.82;5.55;;;;;;;15.38;40.68;100846.09;7394586;19;20490;-68
2023/04/28 10:41:00;;;;;;;12.00;5.95;;;;;;;15.48;40.49;100850.09;7394896;19;20388;-69
2023/04/28 10:43:36;;;;;;;11.90;6.50;;;;;;;15.60;40.20;100846.06;7393638;19;20014;-70
2023/04/28 10:46:09;;;;;;;9.77;6.28;;;;;;;15.73;39.86;100841.16;7395282;19;20388;-69
2023/04/28 10:49:05;;;;;;;8.57;5.32;;;;;;;15.87;39.78;100832.66;7396257;19;20070;-69
2023/04/28 10:51:36;;;;;;;8.90;5.20;;;;;;;15.99;39.72;100830.41;7394881;19;20370;-68
2023/04/28 10:54:19;;;;;;;9.13;5.40;;;;;;;16.14;39.25;100827.09;7393594;19;20015;-69
2023/04/28 10:57:20;;;;;;;12.25;5.25;;;;;;;16.23;38.90;100817.91;7395159;19;20014;-69
2023/04/28 10:59:49;;;;;;;8.75;5.90;;;;;;;16.38;39.37;100816.34;7394519;19;20091;-68
2023/04/28 11:02:40;;;;;;;7.78;5.03;;;;;;;16.53;39.40;100818.31;7393451;19;20019;-68
2023/04/28 11:05:20;;;;;;;10.32;5.75;;;;;;;16.65;39.08;100810.72;7389874;19;20007;-68
2023/04/28 11:08:32;;;;;;;8.85;5.18;;;;;;;16.75;38.32;100818.16;7392357;19;20006;-69
2023/04/28 11:11:18;;;;;;;7.72;5.13;;;;;;;16.83;38.49;100815.16;7393405;19;20025;-69
2023/04/28 11:13:48;;;;;;;8.90;5.43;;;;;;;16.91;38.80;100813.03;7392919;19;20031;-69
2023/04/28 11:16:18;;;;;;;13.57;6.47;;;;;;;16.97;38.76;100817.19;7392366;19;20057;-68
2023/04/28 11:18:52;;;;;;;11.25;5.22;;;;;;;17.05;38.47;100817.69;7391656;19;20019;-71
2023/04/28 11:21:21;;;;;;;10.48;5.13;;;;;;;17.12;37.90;100814.75;7393187;19;20046;-68
2023/04/28 11:23:50;;;;;;;8.68;4.95;;;;;;;17.14;37.73;100802.28;7391337;19;20018;-68
2023/04/28 11:26:22;;;;;;;8.10;5.32;;;;;;;17.15;38.03;100806.63;7392661;19;20022;-66
2023/04/28 11:28:55;;;;;;;10.75;7.82;;;;;;;17.19;37.96;100803.78;7392644;19;20028;-69
2023/04/28 11:31:25;;;;;;;9.40;5.20;;;;;;;17.24;38.25;100803.56;7393449;19;20019;-69
2023/04/28 11:33:56;;;;;;;10.27;6.20;;;;;;;17.30;37.58;100803.25;7391419;19;20011;-69
2023/04/28 11:36:30;;;;;;;10.73;5.32;;;;;;;17.30;37.90;100810.34;7393242;19;20085;-68
2023/04/28 11:38:59;;;;;;;9.10;5.30;;;;;;;17.31;37.70;100799.66;7390701;19;20011;-69
2023/04/28 11:41:31;;;;;;;8.00;5.03;;;;;;;17.35;37.29;100800.34;7393904;19;20035;-69